sensor_id;sensor_type;location;lat;lon;timestamp;P1;durP1;ratioP1;P2;durP2;ratioP2
41546;SDS011;27271;45.412;10.852;2023-07-31T04:33:58;1.90;;;1.35;;
41546;SDS011;27271;45.412;10.852;2023-07-31T04:37:20;1.95;;;1.42;;
41546;SDS011;27271;45.412;10.852;2023-07-31T04:40:42;2.67;;;1.65;;
41546;SDS011;27271;45.412;10.852;2023-07-31T04:44:04;2.88;;;2.03;;
41546;SDS011;27271;45.412;10.852;2023-07-31T04:47:26;2.65;;;2.10;;
41546;SDS011;27271;45.412;10.852;2023-07-31T04:50:49;3.60;;;2.30;;
41546;SDS011;27271;45.412;10.852;2023-07-31T04:54:11;3.83;;;2.05;;
41546;SDS011;27271;45.412;10.852;2023-07-31T04:57:36;1.75;;;1.60;;
41546;SDS011;27271;45.412;10.852;2023-07-31T05:00:58;2.45;;;1.80;;
41546;SDS011;27271;45.412;10.852;2023-07-31T05:04:20;2.22;;;1.67;;
41546;SDS011;27271;45.412;10.852;2023-07-31T05:07:43;2.70;;;1.83;;
41546;SDS011;27271;45.412;10.852;2023-07-31T05:11:05;1.85;;;1.48;;
41546;SDS011;27271;45.412;10.852;2023-07-31T05:14:27;2.08;;;1.88;;
41546;SDS011;27271;45.412;10.852;2023-07-31T05:17:50;3.85;;;2.25;;
41546;SDS011;27271;45.412;10.852;2023-07-31T05:21:12;1.80;;;1.70;;
41546;SDS011;27271;45.412;10.852;2023-07-31T05:24:34;1.73;;;1.35;;
41546;SDS011;27271;45.412;10.852;2023-07-31T05:27:57;2.00;;;1.48;;
41546;SDS011;27271;45.412;10.852;2023-07-31T05:31:19;2.50;;;1.52;;
41546;SDS011;27271;45.412;10.852;2023-07-31T05:34:42;2.35;;;1.58;;
41546;SDS011;27271;45.412;10.852;2023-07-31T05:38:04;1.63;;;1.13;;
41546;SDS011;27271;45.412;10.852;2023-07-31T05:41:26;1.73;;;1.63;;
41546;SDS011;27271;45.412;10.852;2023-07-31T05:44:48;3.88;;;2.00;;
41546;SDS011;27271;45.412;10.852;2023-07-31T05:48:10;1.98;;;1.55;;
41546;SDS011;27271;45.412;10.852;2023-07-31T05:51:32;2.35;;;2.15;;
41546;SDS011;27271;45.412;10.852;2023-07-31T05:54:55;35.40;;;17.20;;
41546;SDS011;27271;45.412;10.852;2023-07-31T05:58:17;13.88;;;7.30;;
41546;SDS011;27271;45.412;10.852;2023-07-31T06:01:39;97.93;;;39.72;;
41546;SDS011;27271;45.412;10.852;2023-07-31T06:05:03;49.80;;;22.77;;
41546;SDS011;27271;45.412;10.852;2023-07-31T06:08:27;35.15;;;21.58;;
41546;SDS011;27271;45.412;10.852;2023-07-31T06:11:49;4.60;;;4.15;;
41546;SDS011;27271;45.412;10.852;2023-07-31T06:15:11;3.17;;;2.70;;
41546;SDS011;27271;45.412;10.852;2023-07-31T06:18:34;2.88;;;2.38;;
41546;SDS011;27271;45.412;10.852;2023-07-31T06:21:56;2.72;;;1.95;;
41546;SDS011;27271;45.412;10.852;2023-07-31T06:25:18;3.45;;;2.70;;
41546;SDS011;27271;45.412;10.852;2023-07-31T06:28:41;2.10;;;1.83;;
41546;SDS011;27271;45.412;10.852;2023-07-31T06:32:03;14.07;;;3.03;;
41546;SDS011;27271;45.412;10.852;2023-07-31T06:35:26;1.30;;;1.20;;
41546;SDS011;27271;45.412;10.852;2023-07-31T06:38:48;2.85;;;1.80;;
41546;SDS011;27271;45.412;10.852;2023-07-31T06:42:10;1.38;;;1.25;;
41546;SDS011;27271;45.412;10.852;2023-07-31T06:45:32;2.67;;;1.23;;
41546;SDS011;27271;45.412;10.852;2023-07-31T06:48:54;0.90;;;0.90;;
41546;SDS011;27271;45.412;10.852;2023-07-31T06:52:16;1.38;;;1.23;;
41546;SDS011;27271;45.412;10.852;2023-07-31T06:55:38;2.90;;;2.50;;
41546;SDS011;27271;45.412;10.852;2023-07-31T06:59:01;2.33;;;1.40;;
41546;SDS011;27271;45.412;10.852;2023-07-31T07:02:23;2.50;;;1.45;;
41546;SDS011;27271;45.412;10.852;2023-07-31T07:05:45;2.25;;;1.55;;
41546;SDS011;27271;45.412;10.852;2023-07-31T07:09:08;3.72;;;1.48;;
41546;SDS011;27271;45.412;10.852;2023-07-31T07:12:30;1.70;;;1.42;;
41546;SDS011;27271;45.412;10.852;2023-07-31T07:15:54;1.65;;;1.35;;
41546;SDS011;27271;45.412;10.852;2023-07-31T07:19:16;3.65;;;1.98;;
41546;SDS011;27271;45.412;10.852;2023-07-31T07:22:38;2.40;;;2.17;;
41546;SDS011;27271;45.412;10.852;2023-07-31T07:26:00;1.73;;;1.20;;
41546;SDS011;27271;45.412;10.852;2023-07-31T07:29:22;2.03;;;1.45;;
41546;SDS011;27271;45.412;10.852;2023-07-31T07:32:44;1.73;;;1.23;;
41546;SDS011;27271;45.412;10.852;2023-07-31T07:36:06;1.73;;;1.63;;
41546;SDS011;27271;45.412;10.852;2023-07-31T07:39:31;1.77;;;1.30;;
41546;SDS011;27271;45.412;10.852;2023-07-31T07:42:53;1.10;;;1.00;;
41546;SDS011;27271;45.412;10.852;2023-07-31T07:46:15;1.08;;;0.98;;
41546;SDS011;27271;45.412;10.852;2023-07-31T07:49:37;1.35;;;1.10;;
41546;SDS011;27271;45.412;10.852;2023-07-31T07:52:59;1.25;;;1.08;;
41546;SDS011;27271;45.412;10.852;2023-07-31T07:56:21;1.20;;;1.00;;
41546;SDS011;27271;45.412;10.852;2023-07-31T07:59:47;1.15;;;1.00;;
41546;SDS011;27271;45.412;10.852;2023-07-31T08:03:09;2.15;;;1.70;;
41546;SDS011;27271;45.412;10.852;2023-07-31T08:06:31;0.90;;;0.85;;
41546;SDS011;27271;45.412;10.852;2023-07-31T08:09:53;0.82;;;0.80;;
41546;SDS011;27271;45.412;10.852;2023-07-31T08:13:15;1.42;;;1.10;;
41546;SDS011;27271;45.412;10.852;2023-07-31T08:16:38;0.85;;;0.85;;
41546;SDS011;27271;45.412;10.852;2023-07-31T08:20:00;1.27;;;1.10;;
41546;SDS011;27271;45.412;10.852;2023-07-31T08:23:22;2.20;;;1.25;;
41546;SDS011;27271;45.412;10.852;2023-07-31T08:26:45;0.85;;;0.77;;
41546;SDS011;27271;45.412;10.852;2023-07-31T08:30:07;1.48;;;1.02;;
41546;SDS011;27271;45.412;10.852;2023-07-31T08:33:29;1.50;;;0.88;;
41546;SDS011;27271;45.412;10.852;2023-07-31T08:36:51;0.98;;;0.95;;
41546;SDS011;27271;45.412;10.852;2023-07-31T08:40:14;0.70;;;0.70;;
41546;SDS011;27271;45.412;10.852;2023-07-31T08:43:36;2.45;;;1.20;;
41546;SDS011;27271;45.412;10.852;2023-07-31T08:47:00;0.60;;;0.60;;
41546;SDS011;27271;45.412;10.852;2023-07-31T08:50:22;0.88;;;0.68;;
41546;SDS011;27271;45.412;10.852;2023-07-31T08:53:44;1.13;;;0.85;;
41546;SDS011;27271;45.412;10.852;2023-07-31T08:57:07;0.90;;;0.90;;
41546;SDS011;27271;45.412;10.852;2023-07-31T09:00:33;1.13;;;1.08;;
41546;SDS011;27271;45.412;10.852;2023-07-31T09:03:55;0.77;;;0.77;;
41546;SDS011;27271;45.412;10.852;2023-07-31T09:07:20;0.75;;;0.70;;
41546;SDS011;27271;45.412;10.852;2023-07-31T09:10:43;0.75;;;0.75;;
41546;SDS011;27271;45.412;10.852;2023-07-31T09:14:12;0.80;;;0.60;;
41546;SDS011;27271;45.412;10.852;2023-07-31T09:17:36;0.85;;;0.85;;
41546;SDS011;27271;45.412;10.852;2023-07-31T09:21:04;0.68;;;0.52;;
41546;SDS011;27271;45.412;10.852;2023-07-31T09:24:28;1.40;;;0.70;;
41546;SDS011;27271;45.412;10.852;2023-07-31T09:27:57;0.40;;;0.40;;
41546;SDS011;27271;45.412;10.852;2023-07-31T09:31:34;1.08;;;0.70;;
41546;SDS011;27271;45.412;10.852;2023-07-31T09:35:02;0.80;;;0.80;;
41546;SDS011;27271;45.412;10.852;2023-07-31T09:38:37;1.38;;;0.50;;
41546;SDS011;27271;45.412;10.852;2023-07-31T09:41:59;0.82;;;0.35;;
41546;SDS011;27271;45.412;10.852;2023-07-31T09:45:21;0.35;;;0.35;;
41546;SDS011;27271;45.412;10.852;2023-07-31T09:48:52;1.27;;;0.60;;
41546;SDS011;27271;45.412;10.852;2023-07-31T09:52:14;0.30;;;0.30;;
41546;SDS011;27271;45.412;10.852;2023-07-31T09:55:37;0.98;;;0.57;;
41546;SDS011;27271;45.412;10.852;2023-07-31T09:58:59;0.43;;;0.40;;
41546;SDS011;27271;45.412;10.852;2023-07-31T10:02:23;0.95;;;0.40;;
41546;SDS011;27271;45.412;10.852;2023-07-31T10:05:49;0.30;;;0.30;;
41546;SDS011;27271;45.412;10.852;2023-07-31T10:09:12;1.63;;;0.47;;
41546;SDS011;27271;45.412;10.852;2023-07-31T10:12:39;0.40;;;0.40;;
41546;SDS011;27271;45.412;10.852;2023-07-31T10:16:02;0.40;;;0.40;;
41546;SDS011;27271;45.412;10.852;2023-07-31T10:19:26;0.60;;;0.60;;
41546;SDS011;27271;45.412;10.852;2023-07-31T10:22:51;0.40;;;0.40;;
41546;SDS011;27271;45.412;10.852;2023-07-31T10:26:16;0.73;;;0.52;;
41546;SDS011;27271;45.412;10.852;2023-07-31T10:29:41;0.57;;;0.57;;
41546;SDS011;27271;45.412;10.852;2023-07-31T10:33:10;0.40;;;0.40;;
41546;SDS011;27271;45.412;10.852;2023-07-31T10:36:34;0.75;;;0.60;;
41546;SDS011;27271;45.412;10.852;2023-07-31T10:40:04;0.60;;;0.60;;
41546;SDS011;27271;45.412;10.852;2023-07-31T10:43:28;1.05;;;0.63;;
41546;SDS011;27271;45.412;10.852;2023-07-31T10:47:06;4.15;;;1.02;;
41546;SDS011;27271;45.412;10.852;2023-07-31T10:50:29;0.60;;;0.60;;
41546;SDS011;27271;45.412;10.852;2023-07-31T10:54:00;0.30;;;0.30;;
41546;SDS011;27271;45.412;10.852;2023-07-31T10:57:32;0.50;;;0.50;;
41546;SDS011;27271;45.412;10.852;2023-07-31T11:00:58;0.60;;;0.60;;
41546;SDS011;27271;45.412;10.852;2023-07-31T11:04:25;2.10;;;0.68;;
41546;SDS011;27271;45.412;10.852;2023-07-31T11:07:49;0.95;;;0.65;;
41546;SDS011;27271;45.412;10.852;2023-07-31T11:11:15;1.13;;;1.13;;
41546;SDS011;27271;45.412;10.852;2023-07-31T11:14:38;1.02;;;0.90;;
41546;SDS011;27271;45.412;10.852;2023-07-31T11:18:00;0.65;;;0.65;;
41546;SDS011;27271;45.412;10.852;2023-07-31T11:21:32;1.02;;;0.77;;
41546;SDS011;27271;45.412;10.852;2023-07-31T11:24:54;0.68;;;0.68;;
41546;SDS011;27271;45.412;10.852;2023-07-31T11:28:18;0.50;;;0.50;;
41546;SDS011;27271;45.412;10.852;2023-07-31T11:31:43;0.45;;;0.45;;
41546;SDS011;27271;45.412;10.852;2023-07-31T11:35:06;0.70;;;0.60;;
41546;SDS011;27271;45.412;10.852;2023-07-31T11:38:34;0.40;;;0.38;;
41546;SDS011;27271;45.412;10.852;2023-07-31T11:41:59;1.02;;;0.93;;
41546;SDS011;27271;45.412;10.852;2023-07-31T11:45:23;0.70;;;0.70;;
41546;SDS011;27271;45.412;10.852;2023-07-31T11:48:48;0.73;;;0.57;;
41546;SDS011;27271;45.412;10.852;2023-07-31T11:52:12;2.78;;;0.47;;
41546;SDS011;27271;45.412;10.852;2023-07-31T11:55:35;0.77;;;0.70;;
41546;SDS011;27271;45.412;10.852;2023-07-31T11:59:01;0.38;;;0.30;;
41546;SDS011;27271;45.412;10.852;2023-07-31T12:02:30;1.00;;;0.50;;
41546;SDS011;27271;45.412;10.852;2023-07-31T12:06:05;0.82;;;0.63;;
41546;SDS011;27271;45.412;10.852;2023-07-31T12:09:27;1.23;;;0.60;;
41546;SDS011;27271;45.412;10.852;2023-07-31T12:13:00;0.68;;;0.63;;
41546;SDS011;27271;45.412;10.852;2023-07-31T12:16:27;1.35;;;0.95;;
41546;SDS011;27271;45.412;10.852;2023-07-31T12:19:50;0.60;;;0.60;;
41546;SDS011;27271;45.412;10.852;2023-07-31T12:23:13;0.40;;;0.40;;
41546;SDS011;27271;45.412;10.852;2023-07-31T12:26:36;1.20;;;0.50;;
41546;SDS011;27271;45.412;10.852;2023-07-31T12:29:59;0.73;;;0.45;;
41546;SDS011;27271;45.412;10.852;2023-07-31T12:33:21;1.02;;;0.68;;
41546;SDS011;27271;45.412;10.852;2023-07-31T12:36:43;2.25;;;0.73;;
41546;SDS011;27271;45.412;10.852;2023-07-31T12:40:05;0.50;;;0.45;;
41546;SDS011;27271;45.412;10.852;2023-07-31T12:43:29;0.40;;;0.40;;
41546;SDS011;27271;45.412;10.852;2023-07-31T12:46:51;2.30;;;0.68;;
41546;SDS011;27271;45.412;10.852;2023-07-31T12:50:14;0.77;;;0.70;;
41546;SDS011;27271;45.412;10.852;2023-07-31T12:53:36;0.63;;;0.38;;
41546;SDS011;27271;45.412;10.852;2023-07-31T12:56:58;1.27;;;1.17;;
41546;SDS011;27271;45.412;10.852;2023-07-31T13:00:20;0.43;;;0.43;;
41546;SDS011;27271;45.412;10.852;2023-07-31T13:03:44;0.52;;;0.50;;
41546;SDS011;27271;45.412;10.852;2023-07-31T13:07:06;0.85;;;0.68;;
41546;SDS011;27271;45.412;10.852;2023-07-31T13:10:29;0.20;;;0.20;;
41546;SDS011;27271;45.412;10.852;2023-07-31T13:13:53;0.82;;;0.80;;
41546;SDS011;27271;45.412;10.852;2023-07-31T13:17:16;15.35;;;1.10;;
41546;SDS011;27271;45.412;10.852;2023-07-31T13:20:38;0.90;;;0.70;;
41546;SDS011;27271;45.412;10.852;2023-07-31T13:24:00;0.38;;;0.38;;
41546;SDS011;27271;45.412;10.852;2023-07-31T13:27:22;1.13;;;0.68;;
41546;SDS011;27271;45.412;10.852;2023-07-31T13:30:45;1.75;;;0.50;;
41546;SDS011;27271;45.412;10.852;2023-07-31T13:34:07;1.08;;;0.77;;
41546;SDS011;27271;45.412;10.852;2023-07-31T13:37:29;7.32;;;1.52;;
41546;SDS011;27271;45.412;10.852;2023-07-31T13:40:51;0.80;;;0.45;;
41546;SDS011;27271;45.412;10.852;2023-07-31T13:44:14;2.80;;;0.45;;
41546;SDS011;27271;45.412;10.852;2023-07-31T13:47:36;0.55;;;0.55;;
41546;SDS011;27271;45.412;10.852;2023-07-31T13:50:58;0.70;;;0.50;;
41546;SDS011;27271;45.412;10.852;2023-07-31T13:54:21;1.27;;;0.60;;
41546;SDS011;27271;45.412;10.852;2023-07-31T13:57:44;0.73;;;0.60;;
41546;SDS011;27271;45.412;10.852;2023-07-31T14:01:06;0.52;;;0.40;;
41546;SDS011;27271;45.412;10.852;2023-07-31T14:04:29;0.70;;;0.70;;
41546;SDS011;27271;45.412;10.852;2023-07-31T14:07:51;0.35;;;0.35;;
41546;SDS011;27271;45.412;10.852;2023-07-31T14:11:13;0.93;;;0.80;;
41546;SDS011;27271;45.412;10.852;2023-07-31T14:14:35;0.40;;;0.40;;
41546;SDS011;27271;45.412;10.852;2023-07-31T14:17:57;0.43;;;0.43;;
41546;SDS011;27271;45.412;10.852;2023-07-31T14:21:22;0.30;;;0.30;;
41546;SDS011;27271;45.412;10.852;2023-07-31T14:24:45;0.98;;;0.65;;
41546;SDS011;27271;45.412;10.852;2023-07-31T14:28:08;0.60;;;0.60;;
41546;SDS011;27271;45.412;10.852;2023-07-31T14:31:30;1.02;;;0.63;;
41546;SDS011;27271;45.412;10.852;2023-07-31T14:34:52;0.57;;;0.55;;
41546;SDS011;27271;45.412;10.852;2023-07-31T14:38:16;0.45;;;0.45;;
41546;SDS011;27271;45.412;10.852;2023-07-31T14:41:38;0.50;;;0.50;;
41546;SDS011;27271;45.412;10.852;2023-07-31T14:45:00;0.40;;;0.40;;
41546;SDS011;27271;45.412;10.852;2023-07-31T14:48:23;0.88;;;0.60;;
41546;SDS011;27271;45.412;10.852;2023-07-31T14:51:46;0.82;;;0.50;;
41546;SDS011;27271;45.412;10.852;2023-07-31T14:55:08;0.60;;;0.60;;
41546;SDS011;27271;45.412;10.852;2023-07-31T14:58:31;0.80;;;0.60;;
41546;SDS011;27271;45.412;10.852;2023-07-31T15:01:53;0.90;;;0.60;;
41546;SDS011;27271;45.412;10.852;2023-07-31T15:05:16;1.67;;;0.82;;
41546;SDS011;27271;45.412;10.852;2023-07-31T15:08:38;1.02;;;0.70;;
41546;SDS011;27271;45.412;10.852;2023-07-31T15:12:00;0.77;;;0.77;;
41546;SDS011;27271;45.412;10.852;2023-07-31T15:15:22;0.75;;;0.65;;
41546;SDS011;27271;45.412;10.852;2023-07-31T15:18:45;0.77;;;0.70;;
41546;SDS011;27271;45.412;10.852;2023-07-31T15:22:07;1.30;;;0.75;;
41546;SDS011;27271;45.412;10.852;2023-07-31T15:25:29;0.47;;;0.47;;
41546;SDS011;27271;45.412;10.852;2023-07-31T15:29:04;0.68;;;0.60;;
41546;SDS011;27271;45.412;10.852;2023-07-31T15:32:30;0.47;;;0.47;;
41546;SDS011;27271;45.412;10.852;2023-07-31T15:35:53;0.52;;;0.43;;
41546;SDS011;27271;45.412;10.852;2023-07-31T15:39:17;1.08;;;0.82;;
41546;SDS011;27271;45.412;10.852;2023-07-31T15:42:39;1.80;;;0.80;;
41546;SDS011;27271;45.412;10.852;2023-07-31T15:46:01;1.55;;;0.60;;
41546;SDS011;27271;45.412;10.852;2023-07-31T15:49:24;0.80;;;0.60;;
41546;SDS011;27271;45.412;10.852;2023-07-31T15:52:46;0.80;;;0.60;;
41546;SDS011;27271;45.412;10.852;2023-07-31T15:56:08;0.70;;;0.57;;
41546;SDS011;27271;45.412;10.852;2023-07-31T15:59:30;0.30;;;0.30;;
41546;SDS011;27271;45.412;10.852;2023-07-31T16:02:52;0.75;;;0.75;;
41546;SDS011;27271;45.412;10.852;2023-07-31T16:06:15;0.50;;;0.50;;
41546;SDS011;27271;45.412;10.852;2023-07-31T16:09:37;1.13;;;0.60;;
41546;SDS011;27271;45.412;10.852;2023-07-31T16:12:59;0.47;;;0.47;;
41546;SDS011;27271;45.412;10.852;2023-07-31T16:16:21;0.95;;;0.50;;
41546;SDS011;27271;45.412;10.852;2023-07-31T16:19:44;0.52;;;0.52;;
41546;SDS011;27271;45.412;10.852;2023-07-31T16:23:06;0.40;;;0.40;;
41546;SDS011;27271;45.412;10.852;2023-07-31T16:26:28;0.40;;;0.40;;
41546;SDS011;27271;45.412;10.852;2023-07-31T16:29:50;1.88;;;1.25;;
41546;SDS011;27271;45.412;10.852;2023-07-31T16:33:12;0.50;;;0.50;;
41546;SDS011;27271;45.412;10.852;2023-07-31T16:36:36;1.10;;;0.85;;
41546;SDS011;27271;45.412;10.852;2023-07-31T16:39:59;0.75;;;0.75;;
41546;SDS011;27271;45.412;10.852;2023-07-31T16:43:21;0.47;;;0.40;;
41546;SDS011;27271;45.412;10.852;2023-07-31T16:46:43;0.50;;;0.50;;
41546;SDS011;27271;45.412;10.852;2023-07-31T16:50:05;0.75;;;0.47;;
41546;SDS011;27271;45.412;10.852;2023-07-31T16:53:28;0.90;;;0.55;;
41546;SDS011;27271;45.412;10.852;2023-07-31T16:56:50;0.70;;;0.70;;
41546;SDS011;27271;45.412;10.852;2023-07-31T17:00:21;0.40;;;0.30;;
41546;SDS011;27271;45.412;10.852;2023-07-31T17:03:43;1.77;;;1.27;;
41546;SDS011;27271;45.412;10.852;2023-07-31T17:07:05;0.80;;;0.57;;
41546;SDS011;27271;45.412;10.852;2023-07-31T17:10:27;0.88;;;0.70;;
41546;SDS011;27271;45.412;10.852;2023-07-31T17:13:50;0.70;;;0.70;;
41546;SDS011;27271;45.412;10.852;2023-07-31T17:17:12;0.43;;;0.43;;
41546;SDS011;27271;45.412;10.852;2023-07-31T17:20:34;1.80;;;0.82;;
41546;SDS011;27271;45.412;10.852;2023-07-31T17:23:57;0.85;;;0.85;;
41546;SDS011;27271;45.412;10.852;2023-07-31T17:27:20;0.45;;;0.45;;
41546;SDS011;27271;45.412;10.852;2023-07-31T17:30:45;0.68;;;0.60;;
41546;SDS011;27271;45.412;10.852;2023-07-31T17:34:09;1.08;;;0.55;;
41546;SDS011;27271;45.412;10.852;2023-07-31T17:37:31;0.65;;;0.57;;
41546;SDS011;27271;45.412;10.852;2023-07-31T17:40:53;2.33;;;1.40;;
41546;SDS011;27271;45.412;10.852;2023-07-31T17:44:15;1.85;;;0.80;;
41546;SDS011;27271;45.412;10.852;2023-07-31T17:47:37;0.88;;;0.75;;
41546;SDS011;27271;45.412;10.852;2023-07-31T17:51:00;2.72;;;0.90;;
41546;SDS011;27271;45.412;10.852;2023-07-31T17:54:22;0.70;;;0.70;;
41546;SDS011;27271;45.412;10.852;2023-07-31T17:57:46;0.70;;;0.70;;
41546;SDS011;27271;45.412;10.852;2023-07-31T18:01:09;0.95;;;0.75;;
41546;SDS011;27271;45.412;10.852;2023-07-31T18:04:31;0.93;;;0.65;;
41546;SDS011;27271;45.412;10.852;2023-07-31T18:07:53;6.82;;;1.00;;
41546;SDS011;27271;45.412;10.852;2023-07-31T18:11:15;1.02;;;0.85;;
41546;SDS011;27271;45.412;10.852;2023-07-31T18:14:37;1.92;;;1.00;;
41546;SDS011;27271;45.412;10.852;2023-07-31T18:18:01;1.40;;;1.10;;
41546;SDS011;27271;45.412;10.852;2023-07-31T18:21:23;2.00;;;0.80;;
41546;SDS011;27271;45.412;10.852;2023-07-31T18:24:45;1.60;;;1.00;;
41546;SDS011;27271;45.412;10.852;2023-07-31T18:28:07;0.82;;;0.82;;
41546;SDS011;27271;45.412;10.852;2023-07-31T18:31:29;0.60;;;0.60;;
41546;SDS011;27271;45.412;10.852;2023-07-31T18:34:51;1.55;;;1.08;;
41546;SDS011;27271;45.412;10.852;2023-07-31T18:38:13;2.38;;;0.73;;
41546;SDS011;27271;45.412;10.852;2023-07-31T18:41:35;2.00;;;1.15;;
41546;SDS011;27271;45.412;10.852;2023-07-31T18:44:58;0.80;;;0.75;;
41546;SDS011;27271;45.412;10.852;2023-07-31T18:48:20;0.38;;;0.35;;
41546;SDS011;27271;45.412;10.852;2023-07-31T18:51:42;1.33;;;1.17;;
41546;SDS011;27271;45.412;10.852;2023-07-31T18:55:04;0.90;;;0.60;;
41546;SDS011;27271;45.412;10.852;2023-07-31T18:58:26;0.88;;;0.82;;
41546;SDS011;27271;45.412;10.852;2023-07-31T19:01:48;0.90;;;0.75;;
41546;SDS011;27271;45.412;10.852;2023-07-31T19:05:11;0.50;;;0.50;;
41546;SDS011;27271;45.412;10.852;2023-07-31T19:08:33;1.88;;;0.93;;
41546;SDS011;27271;45.412;10.852;2023-07-31T19:11:56;0.60;;;0.60;;
41546;SDS011;27271;45.412;10.852;2023-07-31T19:15:18;1.17;;;0.80;;
41546;SDS011;27271;45.412;10.852;2023-07-31T19:18:40;0.70;;;0.70;;
41546;SDS011;27271;45.412;10.852;2023-07-31T19:22:02;0.43;;;0.43;;
41546;SDS011;27271;45.412;10.852;2023-07-31T19:25:26;0.35;;;0.30;;
41546;SDS011;27271;45.412;10.852;2023-07-31T19:28:48;1.92;;;1.15;;
41546;SDS011;27271;45.412;10.852;2023-07-31T19:32:10;2.33;;;1.52;;
41546;SDS011;27271;45.412;10.852;2023-07-31T19:35:34;6.28;;;1.65;;
41546;SDS011;27271;45.412;10.852;2023-07-31T19:38:56;1.55;;;0.80;;
41546;SDS011;27271;45.412;10.852;2023-07-31T19:42:18;2.83;;;1.05;;
41546;SDS011;27271;45.412;10.852;2023-07-31T19:45:40;1.02;;;0.95;;
41546;SDS011;27271;45.412;10.852;2023-07-31T19:49:02;9.40;;;1.73;;
41546;SDS011;27271;45.412;10.852;2023-07-31T19:52:26;1.05;;;0.82;;
41546;SDS011;27271;45.412;10.852;2023-07-31T19:55:48;0.80;;;0.80;;
41546;SDS011;27271;45.412;10.852;2023-07-31T19:59:12;0.68;;;0.52;;
41546;SDS011;27271;45.412;10.852;2023-07-31T20:02:34;1.23;;;0.70;;
41546;SDS011;27271;45.412;10.852;2023-07-31T20:05:56;1.55;;;0.98;;
41546;SDS011;27271;45.412;10.852;2023-07-31T20:09:19;0.95;;;0.95;;
41546;SDS011;27271;45.412;10.852;2023-07-31T20:12:42;1.48;;;0.98;;
41546;SDS011;27271;45.412;10.852;2023-07-31T20:16:05;1.27;;;1.17;;
41546;SDS011;27271;45.412;10.852;2023-07-31T20:19:28;1.58;;;0.90;;
41546;SDS011;27271;45.412;10.852;2023-07-31T20:22:50;0.63;;;0.45;;
41546;SDS011;27271;45.412;10.852;2023-07-31T20:26:12;2.20;;;1.25;;
41546;SDS011;27271;45.412;10.852;2023-07-31T20:29:34;1.95;;;0.70;;
41546;SDS011;27271;45.412;10.852;2023-07-31T20:32:56;1.58;;;1.25;;
41546;SDS011;27271;45.412;10.852;2023-07-31T20:36:18;1.13;;;0.90;;
41546;SDS011;27271;45.412;10.852;2023-07-31T20:39:40;4.03;;;1.60;;
41546;SDS011;27271;45.412;10.852;2023-07-31T20:43:02;2.03;;;1.33;;
41546;SDS011;27271;45.412;10.852;2023-07-31T20:46:25;0.88;;;0.88;;
41546;SDS011;27271;45.412;10.852;2023-07-31T20:49:47;1.00;;;0.90;;
41546;SDS011;27271;45.412;10.852;2023-07-31T20:53:09;1.48;;;1.33;;
41546;SDS011;27271;45.412;10.852;2023-07-31T20:56:32;1.02;;;0.95;;
41546;SDS011;27271;45.412;10.852;2023-07-31T20:59:54;1.98;;;1.02;;
41546;SDS011;27271;45.412;10.852;2023-07-31T21:03:16;1.95;;;1.00;;
41546;SDS011;27271;45.412;10.852;2023-07-31T21:06:38;1.15;;;1.02;;
41546;SDS011;27271;45.412;10.852;2023-07-31T21:10:01;1.38;;;0.75;;
41546;SDS011;27271;45.412;10.852;2023-07-31T21:13:25;1.30;;;1.20;;
41546;SDS011;27271;45.412;10.852;2023-07-31T21:16:48;1.48;;;1.23;;
41546;SDS011;27271;45.412;10.852;2023-07-31T21:20:10;1.55;;;1.02;;
41546;SDS011;27271;45.412;10.852;2023-07-31T21:23:32;1.73;;;1.45;;
41546;SDS011;27271;45.412;10.852;2023-07-31T21:26:54;1.77;;;0.88;;
41546;SDS011;27271;45.412;10.852;2023-07-31T21:30:16;1.70;;;1.33;;
41546;SDS011;27271;45.412;10.852;2023-07-31T21:33:38;1.58;;;1.13;;
41546;SDS011;27271;45.412;10.852;2023-07-31T21:37:00;1.45;;;0.90;;
41546;SDS011;27271;45.412;10.852;2023-07-31T21:40:22;2.20;;;1.27;;
41546;SDS011;27271;45.412;10.852;2023-07-31T21:43:44;2.15;;;1.27;;
41546;SDS011;27271;45.412;10.852;2023-07-31T21:47:06;0.68;;;0.68;;
41546;SDS011;27271;45.412;10.852;2023-07-31T21:50:28;0.73;;;0.73;;
41546;SDS011;27271;45.412;10.852;2023-07-31T21:53:50;0.82;;;0.80;;
41546;SDS011;27271;45.412;10.852;2023-07-31T21:57:12;1.45;;;0.88;;
41546;SDS011;27271;45.412;10.852;2023-07-31T22:00:35;0.40;;;0.40;;
41546;SDS011;27271;45.412;10.852;2023-07-31T22:03:57;1.20;;;1.10;;
41546;SDS011;27271;45.412;10.852;2023-07-31T22:07:19;0.75;;;0.75;;
41546;SDS011;27271;45.412;10.852;2023-07-31T22:10:41;1.00;;;0.88;;
41546;SDS011;27271;45.412;10.852;2023-07-31T22:14:03;2.63;;;1.40;;
41546;SDS011;27271;45.412;10.852;2023-07-31T22:17:25;1.40;;;0.98;;
41546;SDS011;27271;45.412;10.852;2023-07-31T22:20:51;1.50;;;1.40;;
41546;SDS011;27271;45.412;10.852;2023-07-31T22:24:13;0.75;;;0.60;;
41546;SDS011;27271;45.412;10.852;2023-07-31T22:27:35;0.68;;;0.60;;
